sensor_id;sensor_type;location;lat;lon;timestamp;pressure;altitude;pressure_sealevel;temperature;humidity
11672;BME280;5892;43.412;24.612;2023-11-21T00:02:25;99789.72;;;6.56;100.00
11672;BME280;5892;43.412;24.612;2023-11-21T00:04:52;99798.63;;;6.61;100.00
11672;BME280;5892;43.412;24.612;2023-11-21T00:07:19;99790.66;;;6.65;100.00
11672;BME280;5892;43.412;24.612;2023-11-21T00:09:46;99795.53;;;6.68;100.00
11672;BME280;5892;43.412;24.612;2023-11-21T00:12:15;99792.53;;;6.69;100.00
11672;BME280;5892;43.412;24.612;2023-11-21T00:14:42;99799.88;;;6.69;100.00
11672;BME280;5892;43.412;24.612;2023-11-21T00:17:09;99794.84;;;6.76;100.00
11672;BME280;5892;43.412;24.612;2023-11-21T00:19:35;99791.22;;;6.80;100.00
11672;BME280;5892;43.412;24.612;2023-11-21T00:22:03;99788.38;;;6.72;100.00
11672;BME280;5892;43.412;24.612;2023-11-21T00:24:29;99772.00;;;6.58;100.00
11672;BME280;5892;43.412;24.612;2023-11-21T00:26:57;99786.75;;;6.71;100.00
11672;BME280;5892;43.412;24.612;2023-11-21T00:29:25;99779.94;;;6.55;99.90
11672;BME280;5892;43.412;24.612;2023-11-21T00:31:52;99777.66;;;6.62;99.47
11672;BME280;5892;43.412;24.612;2023-11-21T00:34:19;99781.47;;;6.61;99.74
11672;BME280;5892;43.412;24.612;2023-11-21T00:36:46;99767.09;;;6.42;99.71
11672;BME280;5892;43.412;24.612;2023-11-21T00:39:13;99786.03;;;6.65;99.73
11672;BME280;5892;43.412;24.612;2023-11-21T00:41:40;99776.66;;;6.58;100.00
11672;BME280;5892;43.412;24.612;2023-11-21T00:44:07;99782.16;;;6.53;100.00
11672;BME280;5892;43.412;24.612;2023-11-21T00:46:35;99780.09;;;6.63;99.96
11672;BME280;5892;43.412;24.612;2023-11-21T00:49:02;99752.88;;;6.45;99.93
11672;BME280;5892;43.412;24.612;2023-11-21T00:51:30;99771.78;;;6.55;99.67
11672;BME280;5892;43.412;24.612;2023-11-21T00:53:56;99737.31;;;6.31;99.95
11672;BME280;5892;43.412;24.612;2023-11-21T00:56:23;99776.66;;;6.58;99.58
11672;BME280;5892;43.412;24.612;2023-11-21T00:58:50;99779.06;;;6.59;99.51
11672;BME280;5892;43.412;24.612;2023-11-21T01:01:18;99775.78;;;6.44;99.79
11672;BME280;5892;43.412;24.612;2023-11-21T01:03:47;99775.03;;;6.57;99.88
11672;BME280;5892;43.412;24.612;2023-11-21T01:06:14;99774.41;;;6.60;99.49
11672;BME280;5892;43.412;24.612;2023-11-21T01:08:41;99742.31;;;6.43;99.38
11672;BME280;5892;43.412;24.612;2023-11-21T01:11:08;99753.25;;;6.57;98.82
11672;BME280;5892;43.412;24.612;2023-11-21T01:13:38;99761.53;;;6.65;98.61
11672;BME280;5892;43.412;24.612;2023-11-21T01:16:06;99764.25;;;6.65;98.85
11672;BME280;5892;43.412;24.612;2023-11-21T01:18:34;99757.06;;;6.56;99.36
11672;BME280;5892;43.412;24.612;2023-11-21T01:21:03;99728.72;;;6.24;99.24
11672;BME280;5892;43.412;24.612;2023-11-21T01:23:30;99735.91;;;6.34;99.52
11672;BME280;5892;43.412;24.612;2023-11-21T01:25:57;99736.22;;;6.32;99.53
11672;BME280;5892;43.412;24.612;2023-11-21T01:28:24;99759.00;;;6.36;100.00
11672;BME280;5892;43.412;24.612;2023-11-21T01:30:52;99759.09;;;6.31;100.00
11672;BME280;5892;43.412;24.612;2023-11-21T01:33:22;99745.28;;;6.28;100.00
11672;BME280;5892;43.412;24.612;2023-11-21T01:35:50;99747.56;;;6.21;100.00
11672;BME280;5892;43.412;24.612;2023-11-21T01:38:20;99745.19;;;6.14;100.00
11672;BME280;5892;43.412;24.612;2023-11-21T01:40:47;99719.94;;;5.95;100.00
11672;BME280;5892;43.412;24.612;2023-11-21T01:43:14;99735.66;;;6.17;100.00
11672;BME280;5892;43.412;24.612;2023-11-21T01:45:42;99704.03;;;6.02;100.00
11672;BME280;5892;43.412;24.612;2023-11-21T01:48:13;99729.97;;;6.13;100.00
11672;BME280;5892;43.412;24.612;2023-11-21T01:50:42;99709.91;;;6.09;100.00
11672;BME280;5892;43.412;24.612;2023-11-21T01:53:11;99728.97;;;6.09;100.00
11672;BME280;5892;43.412;24.612;2023-11-21T01:55:41;99729.03;;;6.04;100.00
11672;BME280;5892;43.412;24.612;2023-11-21T01:58:09;99728.81;;;6.01;100.00
11672;BME280;5892;43.412;24.612;2023-11-21T02:00:38;99714.69;;;5.80;100.00
11672;BME280;5892;43.412;24.612;2023-11-21T02:03:05;99700.03;;;5.76;100.00
11672;BME280;5892;43.412;24.612;2023-11-21T02:05:32;99720.50;;;5.92;100.00
11672;BME280;5892;43.412;24.612;2023-11-21T02:07:59;99733.00;;;5.93;100.00
11672;BME280;5892;43.412;24.612;2023-11-21T02:10:26;99741.75;;;5.90;100.00
11672;BME280;5892;43.412;24.612;2023-11-21T02:12:55;99726.56;;;5.84;100.00
11672;BME280;5892;43.412;24.612;2023-11-21T02:15:24;99741.78;;;5.85;100.00
11672;BME280;5892;43.412;24.612;2023-11-21T02:17:54;99737.69;;;5.87;100.00
11672;BME280;5892;43.412;24.612;2023-11-21T02:20:22;99746.72;;;5.83;100.00
11672;BME280;5892;43.412;24.612;2023-11-21T02:22:52;99733.09;;;5.83;100.00
11672;BME280;5892;43.412;24.612;2023-11-21T02:25:23;99730.91;;;5.85;100.00
11672;BME280;5892;43.412;24.612;2023-11-21T02:27:50;99727.09;;;5.86;100.00
11672;BME280;5892;43.412;24.612;2023-11-21T02:30:17;99726.53;;;5.89;100.00
11672;BME280;5892;43.412;24.612;2023-11-21T02:32:44;99728.66;;;5.92;100.00
11672;BME280;5892;43.412;24.612;2023-11-21T02:35:11;99711.72;;;5.76;100.00
11672;BME280;5892;43.412;24.612;2023-11-21T02:37:38;99735.16;;;5.53;100.00
11672;BME280;5892;43.412;24.612;2023-11-21T02:40:09;99726.41;;;5.57;100.00
11672;BME280;5892;43.412;24.612;2023-11-21T02:42:38;99736.53;;;5.51;100.00
11672;BME280;5892;43.412;24.612;2023-11-21T02:45:06;99726.75;;;5.50;100.00
11672;BME280;5892;43.412;24.612;2023-11-21T02:47:33;99736.22;;;5.52;100.00
11672;BME280;5892;43.412;24.612;2023-11-21T02:50:00;99710.00;;;5.43;100.00
11672;BME280;5892;43.412;24.612;2023-11-21T02:52:27;99714.97;;;5.36;100.00
11672;BME280;5892;43.412;24.612;2023-11-21T02:54:54;99658.09;;;5.02;100.00
11672;BME280;5892;43.412;24.612;2023-11-21T02:57:22;99734.16;;;5.44;100.00
11672;BME280;5892;43.412;24.612;2023-11-21T02:59:49;99731.44;;;5.44;100.00
11672;BME280;5892;43.412;24.612;2023-11-21T03:02:16;99740.63;;;5.48;100.00
11672;BME280;5892;43.412;24.612;2023-11-21T03:04:43;99730.41;;;5.40;100.00
11672;BME280;5892;43.412;24.612;2023-11-21T03:07:10;99737.63;;;5.50;100.00
11672;BME280;5892;43.412;24.612;2023-11-21T03:09:37;99735.94;;;5.54;100.00
11672;BME280;5892;43.412;24.612;2023-11-21T03:12:05;99731.63;;;5.53;100.00
11672;BME280;5892;43.412;24.612;2023-11-21T03:14:33;99723.25;;;5.49;100.00
11672;BME280;5892;43.412;24.612;2023-11-21T03:17:00;99705.56;;;5.28;100.00
11672;BME280;5892;43.412;24.612;2023-11-21T03:19:28;99723.13;;;5.36;100.00
11672;BME280;5892;43.412;24.612;2023-11-21T03:21:55;99672.28;;;4.94;100.00
11672;BME280;5892;43.412;24.612;2023-11-21T03:24:21;99727.66;;;5.22;100.00
11672;BME280;5892;43.412;24.612;2023-11-21T03:26:49;99656.69;;;4.81;100.00
11672;BME280;5892;43.412;24.612;2023-11-21T03:29:16;99709.50;;;5.17;100.00
11672;BME280;5892;43.412;24.612;2023-11-21T03:31:44;99711.69;;;5.15;100.00
11672;BME280;5892;43.412;24.612;2023-11-21T03:34:16;99702.03;;;5.04;100.00
11672;BME280;5892;43.412;24.612;2023-11-21T03:36:43;99712.63;;;5.05;100.00
11672;BME280;5892;43.412;24.612;2023-11-21T03:39:11;99703.59;;;5.10;100.00
11672;BME280;5892;43.412;24.612;2023-11-21T03:41:38;99692.91;;;4.95;100.00
11672;BME280;5892;43.412;24.612;2023-11-21T03:44:05;99697.94;;;5.06;100.00
11672;BME280;5892;43.412;24.612;2023-11-21T03:46:32;99707.25;;;5.00;100.00
11672;BME280;5892;43.412;24.612;2023-11-21T03:49:00;99708.13;;;4.96;100.00
11672;BME280;5892;43.412;24.612;2023-11-21T03:51:27;99710.19;;;5.04;100.00
11672;BME280;5892;43.412;24.612;2023-11-21T03:53:54;99705.91;;;4.98;100.00
11672;BME280;5892;43.412;24.612;2023-11-21T03:56:21;99720.00;;;5.00;100.00
11672;BME280;5892;43.412;24.612;2023-11-21T03:58:48;99715.84;;;4.84;100.00
11672;BME280;5892;43.412;24.612;2023-11-21T04:01:20;99728.78;;;4.92;100.00
11672;BME280;5892;43.412;24.612;2023-11-21T04:03:48;99727.22;;;4.86;100.00
11672;BME280;5892;43.412;24.612;2023-11-21T04:06:16;99732.41;;;4.82;100.00
11672;BME280;5892;43.412;24.612;2023-11-21T04:08:43;99727.22;;;4.86;100.00
11672;BME280;5892;43.412;24.612;2023-11-21T04:11:10;99715.03;;;4.83;100.00
11672;BME280;5892;43.412;24.612;2023-11-21T04:13:38;99724.41;;;4.96;100.00
11672;BME280;5892;43.412;24.612;2023-11-21T04:16:06;99702.41;;;4.68;100.00
11672;BME280;5892;43.412;24.612;2023-11-21T04:18:33;99712.06;;;4.80;100.00
11672;BME280;5892;43.412;24.612;2023-11-21T04:21:00;99699.13;;;4.72;100.00
11672;BME280;5892;43.412;24.612;2023-11-21T04:23:29;99707.78;;;4.74;100.00
11672;BME280;5892;43.412;24.612;2023-11-21T04:25:57;99741.94;;;4.80;100.00
11672;BME280;5892;43.412;24.612;2023-11-21T04:28:24;99715.22;;;4.63;100.00
11672;BME280;5892;43.412;24.612;2023-11-21T04:30:51;99697.63;;;4.55;100.00
11672;BME280;5892;43.412;24.612;2023-11-21T04:33:18;99691.06;;;4.61;100.00
11672;BME280;5892;43.412;24.612;2023-11-21T04:35:45;99714.63;;;4.66;100.00
11672;BME280;5892;43.412;24.612;2023-11-21T04:38:11;99721.94;;;4.71;100.00
11672;BME280;5892;43.412;24.612;2023-11-21T04:40:40;99697.09;;;4.58;100.00
11672;BME280;5892;43.412;24.612;2023-11-21T04:43:07;99723.44;;;4.82;100.00
11672;BME280;5892;43.412;24.612;2023-11-21T04:45:34;99724.25;;;4.82;100.00
11672;BME280;5892;43.412;24.612;2023-11-21T04:48:01;99719.34;;;4.84;100.00
11672;BME280;5892;43.412;24.612;2023-11-21T04:50:27;99733.50;;;4.81;100.00
11672;BME280;5892;43.412;24.612;2023-11-21T04:52:57;99715.28;;;4.82;100.00
11672;BME280;5892;43.412;24.612;2023-11-21T04:55:23;99733.97;;;4.88;100.00
11672;BME280;5892;43.412;24.612;2023-11-21T04:57:54;99685.25;;;4.49;100.00
11672;BME280;5892;43.412;24.612;2023-11-21T05:00:21;99737.28;;;4.85;100.00
11672;BME280;5892;43.412;24.612;2023-11-21T05:02:48;99741.84;;;4.90;100.00
11672;BME280;5892;43.412;24.612;2023-11-21T05:05:15;99745.31;;;4.95;100.00
11672;BME280;5892;43.412;24.612;2023-11-21T05:07:42;99734.72;;;4.94;100.00
11672;BME280;5892;43.412;24.612;2023-11-21T05:10:09;99709.88;;;4.82;100.00
11672;BME280;5892;43.412;24.612;2023-11-21T05:12:37;99740.31;;;5.07;100.00
11672;BME280;5892;43.412;24.612;2023-11-21T05:15:07;99742.59;;;5.19;100.00
11672;BME280;5892;43.412;24.612;2023-11-21T05:17:35;99716.97;;;5.06;100.00
11672;BME280;5892;43.412;24.612;2023-11-21T05:20:03;99741.91;;;5.32;100.00
11672;BME280;5892;43.412;24.612;2023-11-21T05:22:34;99743.47;;;5.38;100.00
11672;BME280;5892;43.412;24.612;2023-11-21T05:25:01;99744.03;;;5.35;100.00
11672;BME280;5892;43.412;24.612;2023-11-21T05:27:29;99741.00;;;5.42;100.00
11672;BME280;5892;43.412;24.612;2023-11-21T05:29:56;99746.13;;;5.43;100.00
11672;BME280;5892;43.412;24.612;2023-11-21T05:32:24;99746.13;;;5.43;100.00
11672;BME280;5892;43.412;24.612;2023-11-21T05:34:55;99718.03;;;5.29;100.00
11672;BME280;5892;43.412;24.612;2023-11-21T05:37:22;99753.56;;;5.57;100.00
11672;BME280;5892;43.412;24.612;2023-11-21T05:39:49;99747.50;;;5.65;100.00
11672;BME280;5892;43.412;24.612;2023-11-21T05:42:16;99745.59;;;5.65;100.00
11672;BME280;5892;43.412;24.612;2023-11-21T05:44:43;99756.16;;;5.67;100.00
11672;BME280;5892;43.412;24.612;2023-11-21T05:47:10;99758.25;;;5.75;100.00
11672;BME280;5892;43.412;24.612;2023-11-21T05:49:39;99760.97;;;5.75;100.00
11672;BME280;5892;43.412;24.612;2023-11-21T05:52:07;99758.47;;;5.78;100.00
11672;BME280;5892;43.412;24.612;2023-11-21T05:54:35;99752.09;;;5.88;100.00
11672;BME280;5892;43.412;24.612;2023-11-21T05:57:02;99753.59;;;5.99;100.00
11672;BME280;5892;43.412;24.612;2023-11-21T05:59:29;99757.66;;;6.02;100.00
11672;BME280;5892;43.412;24.612;2023-11-21T06:01:56;99745.28;;;6.09;100.00
11672;BME280;5892;43.412;24.612;2023-11-21T06:04:24;99758.50;;;6.16;100.00
11672;BME280;5892;43.412;24.612;2023-11-21T06:06:52;99749.09;;;6.27;100.00
11672;BME280;5892;43.412;24.612;2023-11-21T06:09:19;99750.56;;;6.38;100.00
11672;BME280;5892;43.412;24.612;2023-11-21T06:11:47;99737.97;;;6.42;100.00
11672;BME280;5892;43.412;24.612;2023-11-21T06:14:14;99756.84;;;6.52;100.00
11672;BME280;5892;43.412;24.612;2023-11-21T06:16:43;99748.41;;;6.54;100.00
11672;BME280;5892;43.412;24.612;2023-11-21T06:19:11;99767.13;;;6.55;100.00
11672;BME280;5892;43.412;24.612;2023-11-21T06:21:37;99749.19;;;6.54;100.00
11672;BME280;5892;43.412;24.612;2023-11-21T06:24:07;99753.34;;;6.65;100.00
11672;BME280;5892;43.412;24.612;2023-11-21T06:26:33;99731.19;;;6.58;100.00
11672;BME280;5892;43.412;24.612;2023-11-21T06:29:00;99744.09;;;6.66;100.00
11672;BME280;5892;43.412;24.612;2023-11-21T06:31:28;99754.59;;;6.73;100.00
11672;BME280;5892;43.412;24.612;2023-11-21T06:33:55;99736.06;;;6.75;100.00
11672;BME280;5892;43.412;24.612;2023-11-21T06:36:23;99736.38;;;6.87;100.00
11672;BME280;5892;43.412;24.612;2023-11-21T06:38:50;99738.13;;;7.10;100.00
11672;BME280;5892;43.412;24.612;2023-11-21T06:41:18;99729.34;;;7.13;100.00
11672;BME280;5892;43.412;24.612;2023-11-21T06:43:46;99739.03;;;7.33;100.00
11672;BME280;5892;43.412;24.612;2023-11-21T06:46:13;99737.94;;;7.48;100.00
11672;BME280;5892;43.412;24.612;2023-11-21T06:48:41;99749.03;;;7.65;100.00
11672;BME280;5892;43.412;24.612;2023-11-21T06:51:08;99728.13;;;7.74;100.00
11672;BME280;5892;43.412;24.612;2023-11-21T06:53:36;99737.84;;;8.02;100.00
11672;BME280;5892;43.412;24.612;2023-11-21T06:56:04;99740.09;;;8.23;100.00
11672;BME280;5892;43.412;24.612;2023-11-21T06:58:33;99717.72;;;8.12;100.00
11672;BME280;5892;43.412;24.612;2023-11-21T07:01:00;99681.38;;;8.03;100.00
11672;BME280;5892;43.412;24.612;2023-11-21T07:03:27;99733.41;;;8.42;99.75
11672;BME280;5892;43.412;24.612;2023-11-21T07:05:54;99734.28;;;8.52;99.14
11672;BME280;5892;43.412;24.612;2023-11-21T07:08:21;99739.66;;;8.65;98.70
11672;BME280;5892;43.412;24.612;2023-11-21T07:10:48;99705.31;;;8.42;97.38
11672;BME280;5892;43.412;24.612;2023-11-21T07:13:15;99736.19;;;8.73;97.36
11672;BME280;5892;43.412;24.612;2023-11-21T07:15:43;99723.66;;;8.72;96.66
11672;BME280;5892;43.412;24.612;2023-11-21T07:18:10;99741.25;;;8.88;96.52
11672;BME280;5892;43.412;24.612;2023-11-21T07:20:37;99721.63;;;8.86;95.46
11672;BME280;5892;43.412;24.612;2023-11-21T07:23:04;99746.34;;;9.12;95.26
11672;BME280;5892;43.412;24.612;2023-11-21T07:25:31;99730.94;;;9.16;94.49
11672;BME280;5892;43.412;24.612;2023-11-21T07:28:03;99686.34;;;8.99;94.13
11672;BME280;5892;43.412;24.612;2023-11-21T07:31:30;99652.72;;;8.89;93.05
11672;BME280;5892;43.412;24.612;2023-11-21T07:34:13;99725.09;;;9.49;92.62
11672;BME280;5892;43.412;24.612;2023-11-21T07:37:01;99739.81;;;9.70;92.24
11672;BME280;5892;43.412;24.612;2023-11-21T07:39:45;99695.88;;;9.66;90.51
11672;BME280;5892;43.412;24.612;2023-11-21T07:42:12;99674.00;;;9.66;90.31
11672;BME280;5892;43.412;24.612;2023-11-21T07:44:39;99747.50;;;10.25;89.61
11672;BME280;5892;43.412;24.612;2023-11-21T07:47:07;99742.81;;;10.34;88.94
11672;BME280;5892;43.412;24.612;2023-11-21T07:49:34;99729.94;;;10.34;87.96
11672;BME280;5892;43.412;24.612;2023-11-21T07:52:01;99743.63;;;10.51;86.96
11672;BME280;5892;43.412;24.612;2023-11-21T07:54:29;99748.91;;;10.65;86.30
11672;BME280;5892;43.412;24.612;2023-11-21T07:56:55;99715.91;;;10.44;86.73
11672;BME280;5892;43.412;24.612;2023-11-21T07:59:22;99738.75;;;10.74;86.20
11672;BME280;5892;43.412;24.612;2023-11-21T08:01:49;99745.81;;;10.92;85.42
11672;BME280;5892;43.412;24.612;2023-11-21T08:04:17;99740.78;;;10.94;84.32
11672;BME280;5892;43.412;24.612;2023-11-21T08:06:44;99722.41;;;11.03;84.51
11672;BME280;5892;43.412;24.612;2023-11-21T08:09:11;99740.84;;;11.32;83.65
11672;BME280;5892;43.412;24.612;2023-11-21T08:11:38;99733.28;;;11.59;82.98
11672;BME280;5892;43.412;24.612;2023-11-21T08:14:05;99695.63;;;11.68;81.91
11672;BME280;5892;43.412;24.612;2023-11-21T08:16:32;99728.50;;;12.26;80.92
11672;BME280;5892;43.412;24.612;2023-11-21T08:18:59;99733.94;;;12.35;80.27
11672;BME280;5892;43.412;24.612;2023-11-21T08:21:27;99707.66;;;11.84;80.82
11672;BME280;5892;43.412;24.612;2023-11-21T08:23:55;99739.41;;;11.94;81.88
11672;BME280;5892;43.412;24.612;2023-11-21T08:26:22;99666.97;;;11.27;81.53
11672;BME280;5892;43.412;24.612;2023-11-21T08:28:49;99722.72;;;11.69;81.31
11672;BME280;5892;43.412;24.612;2023-11-21T08:31:22;99733.16;;;11.84;82.25
11672;BME280;5892;43.412;24.612;2023-11-21T08:33:49;99735.69;;;11.98;81.22
11672;BME280;5892;43.412;24.612;2023-11-21T08:36:16;99738.34;;;12.27;80.69
11672;BME280;5892;43.412;24.612;2023-11-21T08:38:45;99690.16;;;12.30;79.47
11672;BME280;5892;43.412;24.612;2023-11-21T08:41:12;99729.31;;;12.81;78.47
11672;BME280;5892;43.412;24.612;2023-11-21T08:43:40;99718.16;;;12.77;77.37
11672;BME280;5892;43.412;24.612;2023-11-21T08:46:07;99708.44;;;12.80;77.28
11672;BME280;5892;43.412;24.612;2023-11-21T08:48:35;99713.03;;;12.88;75.91
11672;BME280;5892;43.412;24.612;2023-11-21T08:51:03;99713.78;;;12.97;76.08
11672;BME280;5892;43.412;24.612;2023-11-21T08:53:30;99675.94;;;12.94;75.99
11672;BME280;5892;43.412;24.612;2023-11-21T08:55:59;99706.38;;;13.22;75.99
11672;BME280;5892;43.412;24.612;2023-11-21T08:58:26;99701.09;;;13.41;75.50
11672;BME280;5892;43.412;24.612;2023-11-21T09:00:53;99680.13;;;13.48;75.10
11672;BME280;5892;43.412;24.612;2023-11-21T09:03:20;99674.53;;;13.33;75.02
11672;BME280;5892;43.412;24.612;2023-11-21T09:05:47;99687.91;;;13.46;74.27
11672;BME280;5892;43.412;24.612;2023-11-21T09:08:14;99685.72;;;13.40;74.76
11672;BME280;5892;43.412;24.612;2023-11-21T09:10:40;99684.47;;;13.25;75.54
11672;BME280;5892;43.412;24.612;2023-11-21T09:13:10;99674.53;;;13.33;75.24
11672;BME280;5892;43.412;24.612;2023-11-21T09:15:37;99682.06;;;13.36;74.83
11672;BME280;5892;43.412;24.612;2023-11-21T09:18:05;99634.38;;;13.32;74.33
11672;BME280;5892;43.412;24.612;2023-11-21T09:20:32;99598.38;;;13.25;74.07
11672;BME280;5892;43.412;24.612;2023-11-21T09:22:59;99623.34;;;13.56;73.16
11672;BME280;5892;43.412;24.612;2023-11-21T09:25:26;99652.91;;;14.23;71.95
11672;BME280;5892;43.412;24.612;2023-11-21T09:27:54;99650.22;;;14.27;71.47
11672;BME280;5892;43.412;24.612;2023-11-21T09:30:23;99629.53;;;14.05;70.46
11672;BME280;5892;43.412;24.612;2023-11-21T09:32:50;99659.47;;;14.34;68.99
11672;BME280;5892;43.412;24.612;2023-11-21T09:35:17;99638.06;;;14.28;69.26
11672;BME280;5892;43.412;24.612;2023-11-21T09:37:44;99655.31;;;14.53;68.72
11672;BME280;5892;43.412;24.612;2023-11-21T09:40:11;99647.16;;;14.72;69.02
11672;BME280;5892;43.412;24.612;2023-11-21T09:42:49;99647.00;;;14.80;67.43
11672;BME280;5892;43.412;24.612;2023-11-21T09:45:26;99607.47;;;14.61;67.77
11672;BME280;5892;43.412;24.612;2023-11-21T09:47:54;99620.84;;;15.06;67.13
11672;BME280;5892;43.412;24.612;2023-11-21T09:50:22;99637.81;;;15.23;66.36
11672;BME280;5892;43.412;24.612;2023-11-21T09:52:55;99624.81;;;15.24;65.60
11672;BME280;5892;43.412;24.612;2023-11-21T09:55:26;99618.31;;;15.32;66.64
11672;BME280;5892;43.412;24.612;2023-11-21T09:57:56;99596.84;;;15.41;65.13
11672;BME280;5892;43.412;24.612;2023-11-21T10:00:23;99592.97;;;15.46;64.42
11672;BME280;5892;43.412;24.612;2023-11-21T10:02:56;99591.53;;;15.67;64.10
11672;BME280;5892;43.412;24.612;2023-11-21T10:05:24;99597.66;;;15.96;63.14
11672;BME280;5892;43.412;24.612;2023-11-21T10:07:52;99591.16;;;16.07;62.99
11672;BME280;5892;43.412;24.612;2023-11-21T10:10:22;99584.44;;;16.28;61.40
11672;BME280;5892;43.412;24.612;2023-11-21T10:12:50;99581.78;;;16.31;60.18
11672;BME280;5892;43.412;24.612;2023-11-21T10:15:21;99565.41;;;16.23;60.85
11672;BME280;5892;43.412;24.612;2023-11-21T10:17:49;99572.56;;;16.46;58.49
11672;BME280;5892;43.412;24.612;2023-11-21T10:20:19;99557.56;;;16.67;57.17
11672;BME280;5892;43.412;24.612;2023-11-21T10:22:46;99555.47;;;16.83;55.36
11672;BME280;5892;43.412;24.612;2023-11-21T10:25:13;99559.50;;;16.89;55.23
11672;BME280;5892;43.412;24.612;2023-11-21T10:27:41;99533.00;;;17.14;52.02
11672;BME280;5892;43.412;24.612;2023-11-21T10:30:09;99532.88;;;17.33;51.61
11672;BME280;5892;43.412;24.612;2023-11-21T10:32:39;99529.47;;;17.44;50.57
11672;BME280;5892;43.412;24.612;2023-11-21T10:35:07;99520.91;;;17.52;46.89
11672;BME280;5892;43.412;24.612;2023-11-21T10:37:37;99506.56;;;17.47;46.67
11672;BME280;5892;43.412;24.612;2023-11-21T10:40:07;99493.34;;;17.63;45.81
11672;BME280;5892;43.412;24.612;2023-11-21T10:42:37;99504.69;;;17.84;44.72
11672;BME280;5892;43.412;24.612;2023-11-21T10:45:04;99499.31;;;17.98;44.56
11672;BME280;5892;43.412;24.612;2023-11-21T10:47:39;99475.19;;;18.02;43.90
11672;BME280;5892;43.412;24.612;2023-11-21T10:50:06;99466.84;;;17.99;43.42
11672;BME280;5892;43.412;24.612;2023-11-21T10:52:37;99503.03;;;18.16;43.08
11672;BME280;5892;43.412;24.612;2023-11-21T10:55:16;99454.25;;;18.08;42.93
11672;BME280;5892;43.412;24.612;2023-11-21T10:57:46;99507.47;;;18.21;42.99
11672;BME280;5892;43.412;24.612;2023-11-21T11:00:16;99481.81;;;18.31;42.57
11672;BME280;5892;43.412;24.612;2023-11-21T11:02:46;99464.75;;;18.29;42.55
11672;BME280;5892;43.412;24.612;2023-11-21T11:05:15;99460.75;;;18.27;42.37
11672;BME280;5892;43.412;24.612;2023-11-21T11:07:48;99453.75;;;18.36;42.65
11672;BME280;5892;43.412;24.612;2023-11-21T11:10:18;99454.09;;;18.35;42.11
11672;BME280;5892;43.412;24.612;2023-11-21T11:12:48;99423.50;;;18.20;42.18
11672;BME280;5892;43.412;24.612;2023-11-21T11:15:16;99429.06;;;18.24;42.37
11672;BME280;5892;43.412;24.612;2023-11-21T11:17:44;99440.22;;;18.31;42.74
11672;BME280;5892;43.412;24.612;2023-11-21T11:20:13;99440.06;;;18.13;44.19
11672;BME280;5892;43.412;24.612;2023-11-21T11:22:50;99417.41;;;18.08;44.17
11672;BME280;5892;43.412;24.612;2023-11-21T11:25:34;99416.59;;;18.04;44.01
11672;BME280;5892;43.412;24.612;2023-11-21T11:28:07;99422.06;;;17.97;44.36
11672;BME280;5892;43.412;24.612;2023-11-21T11:30:45;99383.47;;;17.74;45.44
11672;BME280;5892;43.412;24.612;2023-11-21T11:33:23;99391.78;;;17.74;45.89
11672;BME280;5892;43.412;24.612;2023-11-21T11:35:57;99419.19;;;17.86;46.81
11672;BME280;5892;43.412;24.612;2023-11-21T11:38:27;99408.59;;;17.58;47.52
11672;BME280;5892;43.412;24.612;2023-11-21T11:41:01;99403.09;;;17.62;47.89
11672;BME280;5892;43.412;24.612;2023-11-21T11:43:29;99382.69;;;17.44;47.54
11672;BME280;5892;43.412;24.612;2023-11-21T11:45:58;99366.28;;;17.28;48.16
11672;BME280;5892;43.412;24.612;2023-11-21T11:48:29;99393.34;;;17.42;48.72
11672;BME280;5892;43.412;24.612;2023-11-21T11:51:04;99363.78;;;17.16;48.98
11672;BME280;5892;43.412;24.612;2023-11-21T11:53:36;99391.81;;;17.11;49.78
11672;BME280;5892;43.412;24.612;2023-11-21T11:56:22;99391.03;;;17.14;50.27
11672;BME280;5892;43.412;24.612;2023-11-21T11:58:51;99397.59;;;17.02;51.00
11672;BME280;5892;43.412;24.612;2023-11-21T12:01:19;99367.31;;;16.83;51.40
11672;BME280;5892;43.412;24.612;2023-11-21T12:06:52;99370.28;;;16.71;51.96
11672;BME280;5892;43.412;24.612;2023-11-21T12:09:21;99377.47;;;16.75;51.83
11672;BME280;5892;43.412;24.612;2023-11-21T12:11:50;99396.09;;;16.78;52.50
11672;BME280;5892;43.412;24.612;2023-11-21T12:14:17;99369.28;;;16.56;52.42
11672;BME280;5892;43.412;24.612;2023-11-21T12:16:44;99396.34;;;16.70;52.64
11672;BME280;5892;43.412;24.612;2023-11-21T12:19:12;99352.63;;;16.26;52.95
11672;BME280;5892;43.412;24.612;2023-11-21T12:21:39;99405.94;;;16.76;52.62
11672;BME280;5892;43.412;24.612;2023-11-21T12:24:07;99400.41;;;16.76;52.56
11672;BME280;5892;43.412;24.612;2023-11-21T12:26:34;99395.47;;;16.62;52.85
11672;BME280;5892;43.412;24.612;2023-11-21T12:29:04;99362.75;;;16.41;52.96
11672;BME280;5892;43.412;24.612;2023-11-21T12:31:33;99390.56;;;16.52;53.36
11672;BME280;5892;43.412;24.612;2023-11-21T12:34:00;99386.66;;;16.57;53.31
11672;BME280;5892;43.412;24.612;2023-11-21T12:36:28;99382.72;;;16.58;53.18
11672;BME280;5892;43.412;24.612;2023-11-21T12:38:55;99388.06;;;16.70;52.60
11672;BME280;5892;43.412;24.612;2023-11-21T12:41:22;99370.88;;;16.57;52.22
11672;BME280;5892;43.412;24.612;2023-11-21T12:43:49;99383.72;;;16.69;52.11
11672;BME280;5892;43.412;24.612;2023-11-21T12:46:18;99375.03;;;16.70;52.29
11672;BME280;5892;43.412;24.612;2023-11-21T12:48:46;99332.22;;;16.34;51.79
11672;BME280;5892;43.412;24.612;2023-11-21T12:51:13;99386.81;;;16.64;52.51
11672;BME280;5892;43.412;24.612;2023-11-21T12:53:42;99375.31;;;16.62;52.56
11672;BME280;5892;43.412;24.612;2023-11-21T12:56:10;99358.16;;;16.52;52.83
11672;BME280;5892;43.412;24.612;2023-11-21T12:58:37;99377.31;;;16.65;53.10
11672;BME280;5892;43.412;24.612;2023-11-21T13:01:06;99387.69;;;16.71;52.83
11672;BME280;5892;43.412;24.612;2023-11-21T13:03:39;99349.75;;;16.45;52.98
11672;BME280;5892;43.412;24.612;2023-11-21T13:06:06;99379.81;;;16.73;52.92
11672;BME280;5892;43.412;24.612;2023-11-21T13:08:34;99381.38;;;16.71;53.36
11672;BME280;5892;43.412;24.612;2023-11-21T13:11:05;99386.81;;;16.64;53.23
11672;BME280;5892;43.412;24.612;2023-11-21T13:13:33;99380.03;;;16.61;52.96